Terminal Aerodrome Forecast
Issued by NWS

Home | Current Version | Previous Version | Text Only | Print | Product List | Glossary On
Versions: 1 2 3 4 5 6 7 8 9 10 11 12 13 14
000
FTUS44 KJAN 161755 AAA
TAFGTR
TAF AMD
KGTR 161755Z 1618/1718 34013G16KT 2SM -SN FEW014 BKN028 OVC035
     FM162000 35012G17KT 4SM -SN OVC007
     FM162200 34011G17KT P6SM OVC025
     FM170000 34012KT P6SM OVC100=

USA.gov is the U.S. government's official web portal to all federal, state and local government web resources and services.